sensor_id;sensor_type;location;lat;lon;timestamp;pressure;altitude;pressure_sealevel;temperature;humidity
51986;BME280;38002;53.296;6.600;2023-05-07T00:03:10;102029.94;;;11.24;89.44
51986;BME280;38002;53.296;6.600;2023-05-07T00:08:11;102020.44;;;11.19;89.43
51986;BME280;38002;53.296;6.600;2023-05-07T00:13:12;102020.00;;;11.14;89.26
51986;BME280;38002;53.296;6.600;2023-05-07T00:18:12;102034.75;;;11.11;89.75
51986;BME280;38002;53.296;6.600;2023-05-07T00:23:13;102035.91;;;11.09;89.76
51986;BME280;38002;53.296;6.600;2023-05-07T00:28:13;102040.47;;;11.08;89.33
51986;BME280;38002;53.296;6.600;2023-05-07T00:33:14;102040.59;;;11.07;89.17
51986;BME280;38002;53.296;6.600;2023-05-07T00:38:14;102029.72;;;11.07;89.41
51986;BME280;38002;53.296;6.600;2023-05-07T00:43:15;102031.44;;;11.08;89.81
51986;BME280;38002;53.296;6.600;2023-05-07T00:48:16;102037.88;;;11.07;89.96
51986;BME280;38002;53.296;6.600;2023-05-07T00:53:17;102032.44;;;11.07;89.38
51986;BME280;38002;53.296;6.600;2023-05-07T00:58:17;102042.59;;;11.05;90.17
51986;BME280;38002;53.296;6.600;2023-05-07T01:03:18;102038.00;;;11.05;90.11
51986;BME280;38002;53.296;6.600;2023-05-07T01:08:18;102041.59;;;11.06;89.65
51986;BME280;38002;53.296;6.600;2023-05-07T01:13:19;102035.28;;;11.05;89.89
51986;BME280;38002;53.296;6.600;2023-05-07T01:18:20;102035.44;;;11.04;89.78
51986;BME280;38002;53.296;6.600;2023-05-07T01:23:22;102043.44;;;11.05;90.02
51986;BME280;38002;53.296;6.600;2023-05-07T01:28:22;102036.44;;;11.03;90.13
51986;BME280;38002;53.296;6.600;2023-05-07T01:33:23;102031.84;;;11.03;90.08
51986;BME280;38002;53.296;6.600;2023-05-07T01:38:25;102033.72;;;11.03;90.14
51986;BME280;38002;53.296;6.600;2023-05-07T01:43:26;102031.00;;;11.03;90.16
51986;BME280;38002;53.296;6.600;2023-05-07T01:48:27;102027.41;;;11.02;90.65
51986;BME280;38002;53.296;6.600;2023-05-07T01:53:28;102031.41;;;10.98;90.73
51986;BME280;38002;53.296;6.600;2023-05-07T01:58:28;102033.84;;;11.01;90.81
51986;BME280;38002;53.296;6.600;2023-05-07T02:03:29;102033.72;;;11.03;90.37
51986;BME280;38002;53.296;6.600;2023-05-07T02:08:29;102039.28;;;11.01;90.68
51986;BME280;38002;53.296;6.600;2023-05-07T02:13:33;102033.84;;;11.01;90.82
51986;BME280;38002;53.296;6.600;2023-05-07T02:18:33;102033.13;;;10.99;90.97
51986;BME280;38002;53.296;6.600;2023-05-07T02:23:34;102035.84;;;10.99;91.08
51986;BME280;38002;53.296;6.600;2023-05-07T02:28:34;102030.81;;;10.95;91.68
51986;BME280;38002;53.296;6.600;2023-05-07T02:33:35;102031.81;;;10.93;91.07
51986;BME280;38002;53.296;6.600;2023-05-07T02:38:37;102032.78;;;10.92;91.21
51986;BME280;38002;53.296;6.600;2023-05-07T02:43:37;102031.94;;;10.92;91.23
51986;BME280;38002;53.296;6.600;2023-05-07T02:48:37;102036.66;;;10.90;92.05
51986;BME280;38002;53.296;6.600;2023-05-07T02:53:38;102040.66;;;10.86;91.64
51986;BME280;38002;53.296;6.600;2023-05-07T02:58:38;102037.94;;;10.86;91.65
51986;BME280;38002;53.296;6.600;2023-05-07T03:03:39;102038.34;;;10.81;91.61
51986;BME280;38002;53.296;6.600;2023-05-07T03:08:40;102032.44;;;10.76;91.30
51986;BME280;38002;53.296;6.600;2023-05-07T03:13:40;102041.97;;;10.71;91.87
51986;BME280;38002;53.296;6.600;2023-05-07T03:18:41;102031.25;;;10.69;91.64
51986;BME280;38002;53.296;6.600;2023-05-07T03:23:41;102028.78;;;10.66;91.87
51986;BME280;38002;53.296;6.600;2023-05-07T03:28:42;102042.66;;;10.63;92.13
51986;BME280;38002;53.296;6.600;2023-05-07T03:33:54;102035.66;;;10.61;92.15
51986;BME280;38002;53.296;6.600;2023-05-07T03:38:54;102035.75;;;10.59;92.13
51986;BME280;38002;53.296;6.600;2023-05-07T03:43:55;102040.34;;;10.59;92.42
51986;BME280;38002;53.296;6.600;2023-05-07T03:48:55;102037.03;;;10.55;92.13
51986;BME280;38002;53.296;6.600;2023-05-07T03:53:56;102036.44;;;10.52;92.30
51986;BME280;38002;53.296;6.600;2023-05-07T03:58:57;102031.88;;;10.52;92.02
51986;BME280;38002;53.296;6.600;2023-05-07T04:03:57;102043.72;;;10.51;92.46
51986;BME280;38002;53.296;6.600;2023-05-07T04:08:58;102045.72;;;10.49;92.09
51986;BME280;38002;53.296;6.600;2023-05-07T04:13:58;102053.16;;;10.47;92.26
51986;BME280;38002;53.296;6.600;2023-05-07T04:18:59;102051.69;;;10.43;92.04
51986;BME280;38002;53.296;6.600;2023-05-07T04:24:00;102065.41;;;10.41;92.43
51986;BME280;38002;53.296;6.600;2023-05-07T04:29:00;102056.78;;;10.36;92.27
51986;BME280;38002;53.296;6.600;2023-05-07T04:34:01;102062.38;;;10.35;91.88
51986;BME280;38002;53.296;6.600;2023-05-07T04:39:02;102078.91;;;10.32;92.43
51986;BME280;38002;53.296;6.600;2023-05-07T04:44:03;102079.19;;;10.29;91.87
51986;BME280;38002;53.296;6.600;2023-05-07T04:49:04;102072.88;;;10.28;92.37
51986;BME280;38002;53.296;6.600;2023-05-07T04:54:06;102069.31;;;10.28;91.82
51986;BME280;38002;53.296;6.600;2023-05-07T04:59:06;102066.59;;;10.28;92.53
51986;BME280;38002;53.296;6.600;2023-05-07T05:04:07;102076.34;;;10.30;92.61
51986;BME280;38002;53.296;6.600;2023-05-07T05:09:07;102079.94;;;10.31;92.11
51986;BME280;38002;53.296;6.600;2023-05-07T05:14:08;102085.97;;;10.34;92.15
51986;BME280;38002;53.296;6.600;2023-05-07T05:19:09;102087.72;;;10.35;92.69
51986;BME280;38002;53.296;6.600;2023-05-07T05:24:09;102080.78;;;10.31;92.83
51986;BME280;38002;53.296;6.600;2023-05-07T05:29:10;102095.59;;;10.38;92.53
51986;BME280;38002;53.296;6.600;2023-05-07T05:34:10;102103.00;;;10.36;92.78
51986;BME280;38002;53.296;6.600;2023-05-07T05:39:11;102113.00;;;10.36;92.55
51986;BME280;38002;53.296;6.600;2023-05-07T05:44:12;102106.97;;;10.32;93.10
51986;BME280;38002;53.296;6.600;2023-05-07T05:49:12;102108.81;;;10.32;92.51
51986;BME280;38002;53.296;6.600;2023-05-07T05:54:13;102115.28;;;10.31;92.80
51986;BME280;38002;53.296;6.600;2023-05-07T05:59:13;102129.00;;;10.29;92.39
51986;BME280;38002;53.296;6.600;2023-05-07T06:04:14;102120.25;;;10.26;92.90
51986;BME280;38002;53.296;6.600;2023-05-07T06:09:14;102118.50;;;10.25;92.41
51986;BME280;38002;53.296;6.600;2023-05-07T06:14:15;102122.22;;;10.24;93.08
51986;BME280;38002;53.296;6.600;2023-05-07T06:19:15;102117.53;;;10.26;92.79
51986;BME280;38002;53.296;6.600;2023-05-07T06:24:18;102118.50;;;10.25;93.34
51986;BME280;38002;53.296;6.600;2023-05-07T06:29:18;102108.34;;;10.27;93.33
51986;BME280;38002;53.296;6.600;2023-05-07T06:34:19;102107.25;;;10.29;93.45
51986;BME280;38002;53.296;6.600;2023-05-07T06:39:19;102110.69;;;10.31;92.80
51986;BME280;38002;53.296;6.600;2023-05-07T06:44:20;102120.06;;;10.38;93.04
51986;BME280;38002;53.296;6.600;2023-05-07T06:49:21;102118.69;;;10.44;93.05
51986;BME280;38002;53.296;6.600;2023-05-07T06:54:22;102130.88;;;10.50;92.86
51986;BME280;38002;53.296;6.600;2023-05-07T06:59:23;102135.06;;;10.54;92.08
51986;BME280;38002;53.296;6.600;2023-05-07T07:04:24;102140.97;;;10.59;92.68
51986;BME280;38002;53.296;6.600;2023-05-07T07:09:25;102141.25;;;10.56;93.08
51986;BME280;38002;53.296;6.600;2023-05-07T07:14:26;102150.00;;;10.59;91.92
51986;BME280;38002;53.296;6.600;2023-05-07T07:19:26;102156.03;;;10.63;92.54
51986;BME280;38002;53.296;6.600;2023-05-07T07:24:26;102167.50;;;10.66;92.45
51986;BME280;38002;53.296;6.600;2023-05-07T07:29:27;102164.69;;;10.68;92.64
51986;BME280;38002;53.296;6.600;2023-05-07T07:34:27;102159.34;;;10.66;92.27
51986;BME280;38002;53.296;6.600;2023-05-07T07:39:28;102165.81;;;10.65;92.12
51986;BME280;38002;53.296;6.600;2023-05-07T07:44:28;102166.53;;;10.67;91.86
51986;BME280;38002;53.296;6.600;2023-05-07T07:49:29;102172.44;;;10.72;92.19
51986;BME280;38002;53.296;6.600;2023-05-07T07:54:29;102179.34;;;10.76;92.24
51986;BME280;38002;53.296;6.600;2023-05-07T07:59:30;102174.78;;;10.77;91.88
51986;BME280;38002;53.296;6.600;2023-05-07T08:04:30;102174.66;;;10.78;91.73
51986;BME280;38002;53.296;6.600;2023-05-07T08:09:33;102179.94;;;10.80;91.67
51986;BME280;38002;53.296;6.600;2023-05-07T08:14:34;102170.78;;;10.81;92.04
51986;BME280;38002;53.296;6.600;2023-05-07T08:19:36;102181.41;;;10.84;92.36
51986;BME280;38002;53.296;6.600;2023-05-07T08:24:36;102177.19;;;10.91;91.40
51986;BME280;38002;53.296;6.600;2023-05-07T08:29:37;102164.00;;;10.96;92.03
51986;BME280;38002;53.296;6.600;2023-05-07T08:34:37;102167.69;;;11.06;92.38
51986;BME280;38002;53.296;6.600;2023-05-07T08:39:38;102171.34;;;11.16;92.16
51986;BME280;38002;53.296;6.600;2023-05-07T08:44:39;102175.22;;;11.23;92.29
51986;BME280;38002;53.296;6.600;2023-05-07T08:49:40;102187.06;;;11.33;92.19
51986;BME280;38002;53.296;6.600;2023-05-07T08:54:41;102181.38;;;11.46;91.79
51986;BME280;38002;53.296;6.600;2023-05-07T08:59:42;102187.31;;;11.61;92.00
51986;BME280;38002;53.296;6.600;2023-05-07T09:04:42;102188.44;;;11.79;91.95
51986;BME280;38002;53.296;6.600;2023-05-07T09:09:44;102192.38;;;11.96;91.55
51986;BME280;38002;53.296;6.600;2023-05-07T09:14:45;102190.00;;;12.12;91.21
51986;BME280;38002;53.296;6.600;2023-05-07T09:19:46;102192.19;;;12.27;91.01
51986;BME280;38002;53.296;6.600;2023-05-07T09:24:48;102183.16;;;12.37;90.83
51986;BME280;38002;53.296;6.600;2023-05-07T09:29:49;102182.44;;;12.44;91.13
51986;BME280;38002;53.296;6.600;2023-05-07T09:34:50;102184.03;;;12.56;89.89
51986;BME280;38002;53.296;6.600;2023-05-07T09:39:50;102184.16;;;12.64;89.70
51986;BME280;38002;53.296;6.600;2023-05-07T09:44:51;102182.75;;;12.80;89.74
51986;BME280;38002;53.296;6.600;2023-05-07T09:49:56;102181.44;;;12.93;89.41
51986;BME280;38002;53.296;6.600;2023-05-07T09:54:57;102174.69;;;13.07;89.30
51986;BME280;38002;53.296;6.600;2023-05-07T10:00:01;102179.25;;;13.26;88.83
51986;BME280;38002;53.296;6.600;2023-05-07T10:05:04;102166.56;;;13.44;88.79
51986;BME280;38002;53.296;6.600;2023-05-07T10:10:06;102160.06;;;13.54;88.16
51986;BME280;38002;53.296;6.600;2023-05-07T10:15:09;102174.94;;;13.70;88.17
51986;BME280;38002;53.296;6.600;2023-05-07T10:20:10;102172.41;;;13.86;87.80
51986;BME280;38002;53.296;6.600;2023-05-07T10:25:27;102168.88;;;14.03;87.25
51986;BME280;38002;53.296;6.600;2023-05-07T10:35:59;102172.44;;;14.40;86.62
51986;BME280;38002;53.296;6.600;2023-05-07T10:41:01;102182.44;;;14.49;86.46
51986;BME280;38002;53.296;6.600;2023-05-07T10:46:14;102188.59;;;14.51;85.27
51986;BME280;38002;53.296;6.600;2023-05-07T10:51:19;102192.44;;;14.59;85.55
51986;BME280;38002;53.296;6.600;2023-05-07T10:56:25;102191.91;;;14.73;84.81
51986;BME280;38002;53.296;6.600;2023-05-07T11:12:09;102165.59;;;15.49;84.91
51986;BME280;38002;53.296;6.600;2023-05-07T11:17:10;102170.63;;;15.54;84.22
51986;BME280;38002;53.296;6.600;2023-05-07T11:27:32;102161.72;;;15.85;84.19
51986;BME280;38002;53.296;6.600;2023-05-07T11:32:32;102153.38;;;16.03;81.80
51986;BME280;38002;53.296;6.600;2023-05-07T11:37:33;102157.94;;;16.37;83.76
51986;BME280;38002;53.296;6.600;2023-05-07T11:42:35;102164.81;;;16.57;82.75
51986;BME280;38002;53.296;6.600;2023-05-07T11:47:37;102162.50;;;16.86;82.71
51986;BME280;38002;53.296;6.600;2023-05-07T11:52:38;102167.47;;;17.15;82.42
51986;BME280;38002;53.296;6.600;2023-05-07T11:57:39;102171.94;;;17.24;81.01
51986;BME280;38002;53.296;6.600;2023-05-07T12:02:40;102172.09;;;17.14;81.39
51986;BME280;38002;53.296;6.600;2023-05-07T12:07:42;102176.91;;;17.29;81.66
51986;BME280;38002;53.296;6.600;2023-05-07T12:12:45;102179.81;;;17.35;81.23
51986;BME280;38002;53.296;6.600;2023-05-07T12:17:46;102185.44;;;17.66;80.42
51986;BME280;38002;53.296;6.600;2023-05-07T12:22:47;102186.44;;;17.81;80.39
51986;BME280;38002;53.296;6.600;2023-05-07T12:27:53;102186.13;;;17.76;79.16
51986;BME280;38002;53.296;6.600;2023-05-07T12:32:54;102183.34;;;17.84;80.45
51986;BME280;38002;53.296;6.600;2023-05-07T12:37:56;102185.72;;;17.87;79.81
51986;BME280;38002;53.296;6.600;2023-05-07T12:42:56;102188.06;;;18.06;70.06
51986;BME280;38002;53.296;6.600;2023-05-07T12:48:01;102183.94;;;18.41;79.45
51986;BME280;38002;53.296;6.600;2023-05-07T12:53:04;102187.13;;;18.84;78.63
51986;BME280;38002;53.296;6.600;2023-05-07T12:58:08;102189.81;;;18.92;77.66
51986;BME280;38002;53.296;6.600;2023-05-07T13:03:08;102183.00;;;19.02;77.53
51986;BME280;38002;53.296;6.600;2023-05-07T13:08:09;102182.19;;;19.17;77.31
51986;BME280;38002;53.296;6.600;2023-05-07T13:13:10;102179.38;;;19.39;77.03
51986;BME280;38002;53.296;6.600;2023-05-07T13:18:10;102184.28;;;19.29;76.65
51986;BME280;38002;53.296;6.600;2023-05-07T13:23:11;102176.19;;;19.13;76.82
51986;BME280;38002;53.296;6.600;2023-05-07T13:28:11;102173.03;;;19.16;76.63
51986;BME280;38002;53.296;6.600;2023-05-07T13:33:12;102175.88;;;19.08;76.35
51986;BME280;38002;53.296;6.600;2023-05-07T13:38:13;102166.31;;;19.33;76.29
51986;BME280;38002;53.296;6.600;2023-05-07T13:43:16;102171.06;;;19.77;75.47
51986;BME280;38002;53.296;6.600;2023-05-07T13:48:17;102169.91;;;20.01;75.13
51986;BME280;38002;53.296;6.600;2023-05-07T13:53:18;102167.50;;;20.12;74.32
51986;BME280;38002;53.296;6.600;2023-05-07T13:58:18;102165.50;;;20.21;74.19
51986;BME280;38002;53.296;6.600;2023-05-07T14:03:18;102171.13;;;20.13;74.48
51986;BME280;38002;53.296;6.600;2023-05-07T14:08:19;102165.16;;;20.09;74.39
51986;BME280;38002;53.296;6.600;2023-05-07T14:13:20;102157.22;;;20.21;74.39
51986;BME280;38002;53.296;6.600;2023-05-07T14:18:21;102142.03;;;20.46;74.14
51986;BME280;38002;53.296;6.600;2023-05-07T14:23:21;102158.16;;;20.64;73.35
51986;BME280;38002;53.296;6.600;2023-05-07T14:28:26;102162.56;;;20.58;73.35
51986;BME280;38002;53.296;6.600;2023-05-07T14:33:27;102167.81;;;20.32;73.29
51986;BME280;38002;53.296;6.600;2023-05-07T14:38:27;102172.19;;;20.12;73.29
51986;BME280;38002;53.296;6.600;2023-05-07T14:43:27;102171.81;;;20.00;73.03
51986;BME280;38002;53.296;6.600;2023-05-07T14:48:28;102171.53;;;19.80;73.58
51986;BME280;38002;53.296;6.600;2023-05-07T14:53:28;102173.06;;;19.68;73.76
51986;BME280;38002;53.296;6.600;2023-05-07T14:58:29;102174.13;;;19.67;73.81
51986;BME280;38002;53.296;6.600;2023-05-07T15:03:29;102171.63;;;19.58;73.38
51986;BME280;38002;53.296;6.600;2023-05-07T15:08:30;102178.03;;;19.35;73.11
51986;BME280;38002;53.296;6.600;2023-05-07T15:13:30;102190.09;;;19.20;73.52
51986;BME280;38002;53.296;6.600;2023-05-07T15:18:31;102188.25;;;19.12;73.59
51986;BME280;38002;53.296;6.600;2023-05-07T15:23:31;102184.94;;;19.17;73.95
51986;BME280;38002;53.296;6.600;2023-05-07T15:28:33;102190.09;;;19.20;71.70
51986;BME280;38002;53.296;6.600;2023-05-07T15:33:33;102177.19;;;19.35;73.82
51986;BME280;38002;53.296;6.600;2023-05-07T15:38:34;102179.66;;;19.30;73.68
51986;BME280;38002;53.296;6.600;2023-05-07T15:43:46;102173.34;;;19.21;72.43
51986;BME280;38002;53.296;6.600;2023-05-07T15:48:47;102177.69;;;19.16;73.12
51986;BME280;38002;53.296;6.600;2023-05-07T15:53:48;102183.81;;;19.11;73.12
51986;BME280;38002;53.296;6.600;2023-05-07T15:58:49;102178.16;;;19.04;70.09
51986;BME280;38002;53.296;6.600;2023-05-07T16:03:49;102176.50;;;19.18;73.35
51986;BME280;38002;53.296;6.600;2023-05-07T16:08:50;102177.44;;;19.25;73.33
51986;BME280;38002;53.296;6.600;2023-05-07T16:13:50;102173.94;;;19.31;73.58
51986;BME280;38002;53.296;6.600;2023-05-07T16:18:51;102177.56;;;19.32;73.17
51986;BME280;38002;53.296;6.600;2023-05-07T16:23:51;102182.47;;;19.22;73.16
51986;BME280;38002;53.296;6.600;2023-05-07T16:28:52;102188.41;;;18.96;72.36
51986;BME280;38002;53.296;6.600;2023-05-07T16:33:52;102188.69;;;18.78;73.16
51986;BME280;38002;53.296;6.600;2023-05-07T16:38:53;102186.97;;;18.77;73.47
51986;BME280;38002;53.296;6.600;2023-05-07T16:43:54;102199.06;;;18.76;73.48
51986;BME280;38002;53.296;6.600;2023-05-07T16:48:56;102206.00;;;18.72;73.83
51986;BME280;38002;53.296;6.600;2023-05-07T16:53:57;102212.53;;;18.71;73.06
51986;BME280;38002;53.296;6.600;2023-05-07T16:58:57;102218.69;;;18.73;73.46
51986;BME280;38002;53.296;6.600;2023-05-07T17:03:58;102215.94;;;18.73;73.41
51986;BME280;38002;53.296;6.600;2023-05-07T17:08:58;102221.13;;;18.68;73.24
51986;BME280;38002;53.296;6.600;2023-05-07T17:13:59;102215.88;;;18.58;73.31
51986;BME280;38002;53.296;6.600;2023-05-07T17:18:59;102222.63;;;18.48;73.12
51986;BME280;38002;53.296;6.600;2023-05-07T17:24:00;102216.88;;;18.27;73.05
51986;BME280;38002;53.296;6.600;2023-05-07T17:29:01;102226.25;;;18.09;73.15
51986;BME280;38002;53.296;6.600;2023-05-07T17:34:02;102230.97;;;17.85;71.78
51986;BME280;38002;53.296;6.600;2023-05-07T17:39:02;102237.38;;;17.69;73.92
51986;BME280;38002;53.296;6.600;2023-05-07T17:44:03;102224.63;;;17.52;73.89
51986;BME280;38002;53.296;6.600;2023-05-07T17:49:04;102238.41;;;17.36;74.45
51986;BME280;38002;53.296;6.600;2023-05-07T17:54:04;102243.75;;;17.21;74.43
51986;BME280;38002;53.296;6.600;2023-05-07T17:59:05;102250.78;;;16.99;74.40
51986;BME280;38002;53.296;6.600;2023-05-07T18:04:05;102248.88;;;16.84;74.71
51986;BME280;38002;53.296;6.600;2023-05-07T18:09:06;102251.09;;;16.72;74.91
51986;BME280;38002;53.296;6.600;2023-05-07T18:14:06;102264.75;;;16.56;74.90
51986;BME280;38002;53.296;6.600;2023-05-07T18:19:07;102269.66;;;16.44;75.33
51986;BME280;38002;53.296;6.600;2023-05-07T18:24:08;102283.22;;;16.38;75.46
51986;BME280;38002;53.296;6.600;2023-05-07T18:29:08;102285.59;;;16.32;75.57
51986;BME280;38002;53.296;6.600;2023-05-07T18:34:09;102293.44;;;16.27;75.73
51986;BME280;38002;53.296;6.600;2023-05-07T18:39:09;102296.00;;;16.21;75.90
51986;BME280;38002;53.296;6.600;2023-05-07T18:44:10;102285.13;;;16.11;76.07
51986;BME280;38002;53.296;6.600;2023-05-07T18:49:10;102289.19;;;15.99;76.10
51986;BME280;38002;53.296;6.600;2023-05-07T18:54:11;102287.03;;;15.85;76.59
51986;BME280;38002;53.296;6.600;2023-05-07T18:59:11;102283.88;;;15.72;76.75
51986;BME280;38002;53.296;6.600;2023-05-07T19:04:12;102293.06;;;15.63;76.75
51986;BME280;38002;53.296;6.600;2023-05-07T19:09:12;102301.53;;;15.52;76.92
51986;BME280;38002;53.296;6.600;2023-05-07T19:14:13;102306.53;;;15.38;77.27
51986;BME280;38002;53.296;6.600;2023-05-07T19:19:14;102312.44;;;15.26;77.31
51986;BME280;38002;53.296;6.600;2023-05-07T19:24:15;102327.84;;;15.09;77.60
51986;BME280;38002;53.296;6.600;2023-05-07T19:29:15;102323.91;;;14.94;77.94
51986;BME280;38002;53.296;6.600;2023-05-07T19:34:16;102327.34;;;14.78;78.17
51986;BME280;38002;53.296;6.600;2023-05-07T19:39:16;102331.44;;;14.65;77.84
51986;BME280;38002;53.296;6.600;2023-05-07T19:44:17;102345.50;;;14.52;78.40
51986;BME280;38002;53.296;6.600;2023-05-07T19:49:17;102348.72;;;14.38;78.84
51986;BME280;38002;53.296;6.600;2023-05-07T19:54:18;102347.16;;;14.26;78.74
51986;BME280;38002;53.296;6.600;2023-05-07T19:59:19;102346.50;;;14.14;78.68
51986;BME280;38002;53.296;6.600;2023-05-07T20:04:21;102351.44;;;14.01;79.11
51986;BME280;38002;53.296;6.600;2023-05-07T20:09:21;102353.63;;;13.88;78.90
51986;BME280;38002;53.296;6.600;2023-05-07T20:14:22;102362.84;;;13.77;78.89
51986;BME280;38002;53.296;6.600;2023-05-07T20:19:23;102366.59;;;13.67;79.41
51986;BME280;38002;53.296;6.600;2023-05-07T20:24:23;102375.38;;;13.60;79.26
51986;BME280;38002;53.296;6.600;2023-05-07T20:29:24;102379.97;;;13.50;79.72
51986;BME280;38002;53.296;6.600;2023-05-07T20:34:24;102384.59;;;13.40;79.78
51986;BME280;38002;53.296;6.600;2023-05-07T20:39:25;102381.97;;;13.29;79.37
51986;BME280;38002;53.296;6.600;2023-05-07T20:44:25;102383.97;;;13.17;79.88
51986;BME280;38002;53.296;6.600;2023-05-07T20:49:26;102393.84;;;13.09;79.86
51986;BME280;38002;53.296;6.600;2023-05-07T20:54:26;102399.03;;;13.02;79.98
51986;BME280;38002;53.296;6.600;2023-05-07T20:59:27;102399.13;;;12.91;80.11
51986;BME280;38002;53.296;6.600;2023-05-07T21:04:28;102394.38;;;12.84;79.98
51986;BME280;38002;53.296;6.600;2023-05-07T21:09:29;102393.94;;;12.79;80.32
51986;BME280;38002;53.296;6.600;2023-05-07T21:14:29;102395.50;;;12.71;80.46
51986;BME280;38002;53.296;6.600;2023-05-07T21:19:30;102400.50;;;12.66;80.39
51986;BME280;38002;53.296;6.600;2023-05-07T21:24:30;102411.81;;;12.62;80.49
51986;BME280;38002;53.296;6.600;2023-05-07T21:29:31;102418.84;;;12.55;80.65
51986;BME280;38002;53.296;6.600;2023-05-07T21:34:32;102420.38;;;12.48;80.84
51986;BME280;38002;53.296;6.600;2023-05-07T21:39:32;102417.34;;;12.41;80.60
51986;BME280;38002;53.296;6.600;2023-05-07T21:44:33;102421.59;;;12.34;81.05
51986;BME280;38002;53.296;6.600;2023-05-07T21:49:33;102421.28;;;12.27;81.24
51986;BME280;38002;53.296;6.600;2023-05-07T21:54:33;102417.38;;;12.20;81.57
51986;BME280;38002;53.296;6.600;2023-05-07T21:59:34;102417.03;;;12.14;81.40
51986;BME280;38002;53.296;6.600;2023-05-07T22:04:34;102426.75;;;12.07;81.85
51986;BME280;38002;53.296;6.600;2023-05-07T22:09:35;102430.16;;;11.99;81.48
51986;BME280;38002;53.296;6.600;2023-05-07T22:14:35;102429.69;;;11.94;81.70
51986;BME280;38002;53.296;6.600;2023-05-07T22:19:36;102434.78;;;11.88;81.66
51986;BME280;38002;53.296;6.600;2023-05-07T22:24:36;102432.72;;;11.80;81.77
51986;BME280;38002;53.296;6.600;2023-05-07T22:29:37;102436.13;;;11.72;81.94
51986;BME280;38002;53.296;6.600;2023-05-07T22:34:37;102451.69;;;11.70;82.00
51986;BME280;38002;53.296;6.600;2023-05-07T22:39:37;102438.44;;;11.66;82.08
51986;BME280;38002;53.296;6.600;2023-05-07T22:44:39;102440.59;;;11.62;82.36
51986;BME280;38002;53.296;6.600;2023-05-07T22:49:40;102439.88;;;11.60;82.51
51986;BME280;38002;53.296;6.600;2023-05-07T22:54:40;102437.97;;;11.61;82.57
51986;BME280;38002;53.296;6.600;2023-05-07T22:59:41;102429.09;;;11.59;82.68
51986;BME280;38002;53.296;6.600;2023-05-07T23:04:41;102436.66;;;11.55;82.69
51986;BME280;38002;53.296;6.600;2023-05-07T23:09:42;102438.91;;;11.50;82.79
51986;BME280;38002;53.296;6.600;2023-05-07T23:14:42;102432.69;;;11.48;82.75
51986;BME280;38002;53.296;6.600;2023-05-07T23:19:42;102436.44;;;11.47;83.07
51986;BME280;38002;53.296;6.600;2023-05-07T23:24:43;102444.47;;;11.49;83.09
51986;BME280;38002;53.296;6.600;2023-05-07T23:29:44;102434.97;;;11.43;83.01
51986;BME280;38002;53.296;6.600;2023-05-07T23:34:49;102438.91;;;11.39;83.17
51986;BME280;38002;53.296;6.600;2023-05-07T23:39:53;102425.56;;;11.36;83.26
51986;BME280;38002;53.296;6.600;2023-05-07T23:44:54;102426.81;;;11.32;83.03
51986;BME280;38002;53.296;6.600;2023-05-07T23:49:54;102430.91;;;11.26;83.35
51986;BME280;38002;53.296;6.600;2023-05-07T23:54:55;102418.56;;;11.22;83.11
51986;BME280;38002;53.296;6.600;2023-05-07T23:59:55;102422.69;;;11.17;83.13
